createdAt,value
2018-07-14T00:00:41.295Z,13.50
2018-07-14T00:03:09.571Z,13.40
2018-07-14T00:05:37.976Z,13.50
2018-07-14T00:08:06.324Z,13.50
2018-07-14T00:10:34.615Z,13.50
2018-07-14T00:13:02.887Z,13.50
2018-07-14T00:15:31.174Z,13.50
2018-07-14T00:17:59.449Z,13.50
2018-07-14T00:20:27.811Z,13.40
2018-07-14T00:22:56.106Z,13.50
2018-07-14T00:25:29.778Z,13.50
2018-07-14T00:27:58.164Z,13.40
2018-07-14T00:30:26.483Z,13.40
2018-07-14T00:32:54.760Z,13.40
2018-07-14T00:35:23.085Z,13.40
2018-07-14T00:37:51.705Z,13.30
2018-07-14T00:40:20.068Z,13.40
2018-07-14T00:42:48.365Z,13.40
2018-07-14T00:45:16.677Z,13.50
2018-07-14T00:47:44.952Z,13.50
2018-07-14T00:50:13.247Z,13.50
2018-07-14T00:52:41.619Z,13.50
2018-07-14T00:55:10.241Z,13.50
2018-07-14T00:57:38.546Z,13.50
2018-07-14T01:00:06.825Z,13.50
2018-07-14T01:02:35.138Z,13.50
2018-07-14T01:05:03.422Z,13.50
2018-07-14T01:07:31.702Z,13.40
2018-07-14T01:10:00.132Z,13.30
2018-07-14T01:12:28.437Z,13.30
2018-07-14T01:14:56.727Z,13.40
2018-07-14T01:17:25.166Z,13.40
2018-07-14T01:19:53.551Z,13.50
2018-07-14T01:22:21.846Z,13.50
2018-07-14T01:24:50.128Z,13.50
2018-07-14T01:27:18.439Z,13.50
2018-07-14T01:29:46.853Z,13.50
2018-07-14T01:32:15.379Z,13.40
2018-07-14T01:34:43.653Z,13.30
2018-07-14T01:37:12.018Z,13.10
2018-07-14T01:39:40.439Z,13.00
2018-07-14T01:42:08.762Z,13.10
2018-07-14T01:44:37.084Z,13.10
2018-07-14T01:47:05.417Z,13.20
2018-07-14T01:52:01.773Z,13.40
2018-07-14T01:54:30.175Z,13.60
2018-07-14T01:56:58.456Z,13.60
2018-07-14T01:59:26.851Z,13.70
2018-07-14T02:01:55.199Z,13.80
2018-07-14T02:04:23.482Z,13.80
2018-07-14T02:06:51.808Z,13.80
2018-07-14T02:09:20.074Z,13.80
2018-07-14T02:11:48.373Z,13.80
2018-07-14T02:16:44.771Z,13.70
2018-07-14T02:19:13.057Z,13.60
2018-07-14T02:21:41.448Z,13.60
2018-07-14T02:24:09.819Z,13.60
2018-07-14T02:26:38.109Z,13.60
2018-07-14T02:29:06.546Z,13.60
2018-07-14T02:31:34.843Z,13.50
2018-07-14T02:34:03.180Z,13.40
2018-07-14T02:36:31.468Z,13.30
2018-07-14T02:38:59.836Z,13.20
2018-07-14T02:41:28.185Z,13.10
2018-07-14T02:43:56.468Z,13.10
2018-07-14T02:46:24.787Z,13.00
2018-07-14T02:48:53.067Z,13.00
2018-07-14T02:51:21.364Z,12.90
2018-07-14T02:53:49.707Z,12.80
2018-07-14T02:56:18.007Z,12.80
2018-07-14T02:58:46.301Z,12.90
2018-07-14T03:01:14.632Z,12.80
2018-07-14T03:03:42.909Z,12.90
2018-07-14T03:06:11.206Z,12.90
2018-07-14T03:08:39.505Z,12.90
2018-07-14T03:11:07.864Z,12.90
2018-07-14T03:13:36.189Z,12.90
2018-07-14T03:16:04.475Z,12.80
2018-07-14T03:18:32.777Z,12.80
2018-07-14T03:21:01.064Z,12.80
2018-07-14T03:23:29.469Z,12.80
2018-07-14T03:25:57.997Z,12.70
2018-07-14T03:28:26.301Z,12.70
2018-07-14T03:30:54.587Z,12.60
2018-07-14T03:33:22.942Z,12.60
2018-07-14T03:35:51.221Z,12.60
2018-07-14T03:38:19.514Z,12.60
2018-07-14T03:40:47.827Z,12.60
2018-07-14T03:43:16.127Z,12.60
2018-07-14T03:45:44.438Z,12.60
2018-07-14T03:48:12.732Z,12.50
2018-07-14T03:50:41.013Z,12.50
2018-07-14T03:53:09.325Z,12.60
2018-07-14T03:55:37.647Z,12.50
2018-07-14T03:58:06.009Z,12.50
2018-07-14T04:00:34.306Z,12.60
2018-07-14T04:03:02.613Z,12.70
2018-07-14T04:05:30.915Z,12.80
2018-07-14T04:07:59.393Z,12.90
2018-07-14T04:10:27.714Z,13.00
2018-07-14T04:12:56.027Z,13.10
2018-07-14T04:15:24.358Z,13.20
2018-07-14T04:18:03.139Z,13.20
2018-07-14T04:20:31.593Z,13.30
2018-07-14T04:23:00.645Z,13.40
2018-07-14T04:25:29.031Z,13.60
2018-07-14T04:28:03.809Z,13.60
2018-07-14T04:30:32.125Z,13.60
2018-07-14T04:33:00.489Z,13.60
2018-07-14T04:35:28.808Z,13.70
2018-07-14T04:37:57.101Z,13.80
2018-07-14T04:40:25.373Z,13.80
2018-07-14T04:42:53.702Z,13.90
2018-07-14T04:45:22.009Z,14.00
2018-07-14T04:47:50.332Z,14.10
2018-07-14T04:50:18.754Z,14.20
2018-07-14T04:52:47.046Z,14.30
2018-07-14T04:55:15.401Z,14.50
2018-07-14T04:57:43.722Z,14.60
2018-07-14T05:00:12.150Z,14.80
2018-07-14T05:02:40.510Z,14.90
2018-07-14T05:05:08.786Z,15.10
2018-07-14T05:07:37.295Z,15.40
2018-07-14T05:10:05.791Z,15.70
2018-07-14T05:12:34.092Z,15.90
2018-07-14T05:15:02.408Z,16.00
2018-07-14T05:17:30.775Z,16.30
2018-07-14T05:19:59.051Z,16.60
2018-07-14T05:22:27.329Z,16.90
2018-07-14T05:24:55.730Z,17.00
2018-07-14T05:27:24.156Z,17.30
2018-07-14T05:29:52.463Z,17.70
2018-07-14T05:32:20.735Z,17.80
2018-07-14T05:34:49.151Z,18.10
2018-07-14T05:37:17.494Z,18.40
2018-07-14T05:46:32.549Z,18.80
2018-07-14T05:49:00.920Z,19.30
2018-07-14T05:51:29.259Z,19.40
2018-07-14T05:53:57.596Z,19.60
2018-07-14T05:56:25.896Z,19.80
2018-07-14T05:58:54.202Z,20.10
2018-07-14T06:01:22.615Z,20.40
2018-07-14T06:03:50.919Z,20.60
2018-07-14T06:06:19.210Z,21.10
2018-07-14T06:08:47.633Z,21.70
2018-07-14T06:11:16.031Z,22.10
2018-07-14T06:13:44.427Z,22.40
2018-07-14T06:16:12.845Z,22.70
2018-07-14T06:18:41.305Z,23.00
2018-07-14T06:21:09.613Z,23.80
2018-07-14T06:23:38.062Z,24.20
2018-07-14T06:26:06.331Z,24.40
2018-07-14T06:28:34.683Z,25.00
2018-07-14T06:31:03.091Z,26.10
2018-07-14T06:33:31.421Z,27.10
2018-07-14T06:35:59.893Z,27.30
2018-07-14T06:38:28.341Z,27.90
2018-07-14T06:40:56.817Z,29.10
2018-07-14T06:43:25.284Z,29.70
2018-07-14T06:48:21.846Z,31.10
2018-07-14T06:53:18.283Z,31.50
2018-07-14T06:55:46.670Z,31.30
2018-07-14T06:58:15.071Z,31.70
2018-07-14T07:00:43.540Z,32.20
2018-07-14T07:03:12.050Z,31.80
2018-07-14T07:05:40.465Z,31.20
2018-07-14T07:08:08.801Z,31.50
2018-07-14T07:10:37.213Z,31.90
2018-07-14T07:13:05.580Z,28.40
2018-07-14T07:15:33.960Z,28.30
2018-07-14T07:18:02.402Z,29.50
2018-07-14T07:20:30.753Z,29.70
2018-07-14T07:25:27.232Z,30.40
2018-07-14T07:27:55.647Z,30.60
2018-07-14T07:30:24.056Z,31.20
2018-07-14T07:32:52.484Z,31.70
2018-07-14T07:35:20.875Z,32.30
2018-07-14T07:37:49.199Z,31.50
2018-07-14T07:40:17.493Z,31.80
2018-07-14T07:42:45.757Z,31.50
2018-07-14T07:45:14.076Z,30.80
2018-07-14T07:47:42.358Z,31.70
2018-07-14T07:50:10.691Z,32.50
2018-07-14T07:52:39.179Z,32.70
2018-07-14T07:55:07.553Z,32.30
2018-07-14T07:57:35.916Z,31.80
2018-07-14T08:00:04.553Z,32.10
2018-07-14T08:02:32.847Z,32.80
2018-07-14T08:05:01.150Z,32.80
2018-07-14T08:07:29.442Z,32.60
2018-07-14T08:09:57.835Z,32.80
2018-07-14T08:12:26.116Z,33.50
2018-07-14T08:14:54.661Z,31.70
2018-07-14T08:17:23.091Z,32.40
2018-07-14T08:19:51.568Z,32.00
2018-07-14T08:22:19.851Z,32.60
2018-07-14T08:24:48.150Z,32.50
2018-07-14T08:27:16.441Z,31.80
2018-07-14T08:29:44.738Z,31.30
2018-07-14T08:32:13.059Z,31.60
2018-07-14T08:34:41.357Z,32.10
2018-07-14T08:37:09.686Z,32.90
2018-07-14T08:39:38.475Z,33.30
2018-07-14T08:42:07.224Z,33.20
2018-07-14T08:44:35.519Z,33.90
2018-07-14T08:47:03.791Z,34.00
2018-07-14T08:49:32.098Z,33.80
2018-07-14T08:52:00.383Z,32.10
2018-07-14T08:54:28.744Z,31.20
2018-07-14T08:56:57.129Z,31.40
2018-07-14T08:59:25.494Z,31.10
2018-07-14T09:01:53.803Z,30.40
2018-07-14T09:04:22.252Z,30.20
2018-07-14T09:06:50.877Z,31.20
2018-07-14T09:09:19.231Z,31.20
2018-07-14T09:11:47.589Z,30.90
2018-07-14T09:14:16.028Z,31.40
2018-07-14T09:16:44.349Z,31.60
2018-07-14T09:19:12.643Z,31.70
2018-07-14T09:21:40.957Z,31.60
2018-07-14T09:26:37.468Z,29.30
2018-07-14T09:29:05.800Z,27.10
2018-07-14T09:31:34.173Z,26.30
2018-07-14T09:34:02.547Z,26.10
2018-07-14T09:36:30.833Z,25.90
2018-07-14T09:38:59.204Z,25.60
2018-07-14T09:41:27.510Z,25.30
2018-07-14T09:43:56.205Z,24.80
2018-07-14T09:46:24.549Z,24.40
2018-07-14T09:48:52.869Z,24.10
2018-07-14T09:51:21.177Z,24.00
2018-07-14T09:53:49.502Z,23.80
2018-07-14T09:56:17.856Z,23.50
2018-07-14T09:58:46.237Z,23.10
2018-07-14T10:01:14.657Z,23.00
2018-07-14T10:03:42.988Z,22.90
2018-07-14T10:06:11.477Z,23.00
2018-07-14T10:08:39.745Z,22.90
2018-07-14T10:11:08.192Z,23.10
2018-07-14T10:13:37.173Z,23.00
2018-07-14T10:18:33.539Z,22.90
2018-07-14T10:21:01.844Z,22.90
2018-07-14T10:23:30.176Z,22.80
2018-07-14T10:25:58.604Z,22.80
2018-07-14T10:28:26.898Z,22.90
2018-07-14T10:30:55.254Z,23.00
2018-07-14T10:33:23.614Z,23.10
2018-07-14T10:35:51.930Z,22.90
2018-07-14T10:38:20.338Z,22.90
2018-07-14T10:40:48.703Z,22.80
2018-07-14T10:43:17.044Z,22.90
2018-07-14T10:45:45.387Z,22.90
2018-07-14T10:48:13.697Z,22.90
2018-07-14T10:50:42.030Z,23.00
2018-07-14T10:53:10.334Z,23.00
2018-07-14T10:55:38.671Z,23.00
2018-07-14T10:58:07.031Z,23.10
2018-07-14T11:00:35.282Z,23.20
2018-07-14T11:03:03.652Z,23.20
2018-07-14T11:05:32.223Z,23.30
2018-07-14T11:08:00.682Z,23.30
2018-07-14T11:10:29.083Z,23.30
2018-07-14T11:12:57.397Z,23.20
2018-07-14T11:15:25.750Z,23.20
2018-07-14T11:17:54.096Z,23.30
2018-07-14T11:20:22.402Z,23.20
2018-07-14T11:22:50.856Z,23.10
2018-07-14T11:25:19.440Z,23.10
2018-07-14T11:27:47.795Z,23.30
2018-07-14T11:30:16.197Z,23.40
2018-07-14T11:32:44.561Z,23.50
2018-07-14T11:35:12.923Z,23.70
2018-07-14T11:37:41.252Z,23.60
2018-07-14T11:40:09.714Z,23.60
2018-07-14T11:42:38.058Z,23.50
2018-07-14T11:45:06.485Z,23.50
2018-07-14T11:47:34.894Z,23.60
2018-07-14T11:50:03.192Z,23.90
2018-07-14T11:52:31.701Z,24.20
2018-07-14T11:55:00.103Z,24.20
2018-07-14T11:57:28.454Z,24.20
2018-07-14T11:59:56.828Z,24.10
2018-07-14T12:02:25.178Z,24.10
2018-07-14T12:04:53.465Z,24.20
2018-07-14T12:07:21.930Z,24.10
2018-07-14T12:09:50.229Z,23.90
2018-07-14T12:12:18.538Z,23.60
2018-07-14T12:14:46.844Z,23.40
2018-07-14T12:17:15.165Z,23.50
2018-07-14T12:19:43.469Z,23.50
2018-07-14T12:22:11.827Z,23.50
2018-07-14T12:24:40.143Z,23.60
2018-07-14T12:27:08.517Z,23.80
2018-07-14T12:29:36.795Z,23.70
2018-07-14T12:32:05.206Z,23.60
2018-07-14T12:34:33.489Z,23.50
2018-07-14T12:37:01.843Z,23.50
2018-07-14T12:39:30.152Z,23.50
2018-07-14T12:41:58.459Z,23.60
2018-07-14T12:44:26.764Z,23.70
2018-07-14T12:46:55.113Z,23.80
2018-07-14T12:49:23.445Z,24.00
2018-07-14T12:51:51.770Z,24.10
2018-07-14T12:54:20.065Z,24.10
2018-07-14T12:56:48.402Z,24.20
2018-07-14T12:59:16.722Z,24.30
2018-07-14T13:01:45.052Z,24.30
2018-07-14T13:04:13.376Z,24.40
2018-07-14T13:06:41.736Z,24.40
2018-07-14T13:09:10.063Z,24.20
2018-07-14T13:11:38.350Z,24.10
2018-07-14T13:14:06.685Z,24.10
2018-07-14T13:16:35.113Z,24.10
2018-07-14T13:19:03.447Z,24.10
2018-07-14T13:21:31.735Z,24.30
2018-07-14T13:24:00.101Z,24.50
2018-07-14T13:26:28.378Z,24.50
2018-07-14T13:28:56.671Z,24.50
2018-07-14T13:31:24.975Z,24.60
2018-07-14T13:33:53.291Z,24.50
2018-07-14T13:36:21.718Z,24.40
2018-07-14T13:38:51.736Z,24.40
2018-07-14T13:41:18.329Z,24.40
2018-07-14T13:43:46.721Z,24.40
2018-07-14T13:46:15.146Z,24.30
2018-07-14T13:48:43.837Z,24.40
2018-07-14T13:51:12.205Z,24.50
2018-07-14T13:53:40.558Z,24.50
2018-07-14T13:56:08.974Z,24.40
2018-07-14T13:58:37.345Z,24.20
2018-07-14T14:01:05.687Z,24.10
2018-07-14T14:03:34.024Z,24.00
2018-07-14T14:06:02.316Z,24.00
2018-07-14T14:08:30.668Z,24.00
2018-07-14T14:10:58.988Z,24.00
2018-07-14T14:13:27.312Z,24.00
2018-07-14T14:15:55.615Z,24.00
2018-07-14T14:18:23.924Z,24.10
2018-07-14T14:20:52.269Z,24.00
2018-07-14T14:23:20.621Z,23.90
2018-07-14T14:25:49.313Z,23.90
2018-07-14T14:28:17.709Z,24.00
2018-07-14T14:30:46.047Z,24.00
2018-07-14T14:33:14.397Z,24.00
2018-07-14T14:35:42.809Z,23.90
2018-07-14T14:38:11.191Z,23.80
2018-07-14T14:40:39.565Z,23.90
2018-07-14T14:43:07.911Z,24.00
2018-07-14T14:45:36.219Z,24.10
2018-07-14T14:48:04.570Z,24.20
2018-07-14T14:50:32.899Z,24.30
2018-07-14T14:53:01.290Z,24.30
2018-07-14T14:55:29.670Z,24.40
2018-07-14T14:57:58.020Z,24.30
2018-07-14T15:00:26.423Z,24.10
2018-07-14T15:02:54.783Z,24.10
2018-07-14T15:05:23.154Z,24.10
2018-07-14T15:07:51.562Z,24.10
2018-07-14T15:10:19.885Z,24.10
2018-07-14T15:12:48.242Z,24.20
2018-07-14T15:15:16.594Z,24.10
2018-07-14T15:17:44.912Z,24.10
2018-07-14T15:20:13.250Z,24.20
2018-07-14T15:22:41.603Z,24.40
2018-07-14T15:25:09.936Z,24.50
2018-07-14T15:30:07.505Z,24.40
2018-07-14T15:32:36.042Z,24.40
2018-07-14T15:35:04.381Z,24.40
2018-07-14T15:37:32.735Z,24.30
2018-07-14T15:40:01.089Z,24.20
2018-07-14T15:42:29.424Z,24.10
2018-07-14T15:44:57.735Z,24.20
2018-07-14T15:47:26.092Z,24.20
2018-07-14T15:49:54.793Z,24.30
2018-07-14T15:52:23.115Z,24.40
2018-07-14T15:54:51.458Z,24.40
2018-07-14T15:57:19.944Z,24.30
2018-07-14T15:59:48.293Z,24.40
2018-07-14T16:02:16.626Z,24.50
2018-07-14T16:04:44.961Z,24.50
2018-07-14T16:07:13.270Z,24.30
2018-07-14T16:09:41.773Z,24.10
2018-07-14T16:14:38.129Z,24.10
2018-07-14T16:17:06.525Z,24.20
2018-07-14T16:19:34.834Z,24.20
2018-07-14T16:22:03.240Z,24.30
2018-07-14T16:24:31.616Z,24.10
2018-07-14T16:26:59.903Z,24.00
2018-07-14T16:29:28.237Z,23.90
2018-07-14T16:31:56.567Z,23.90
2018-07-14T16:34:24.919Z,24.00
2018-07-14T16:36:53.348Z,23.80
2018-07-14T16:39:21.681Z,23.80
2018-07-14T16:41:50.327Z,23.70
2018-07-14T16:44:18.694Z,23.60
2018-07-14T16:46:47.039Z,23.60
2018-07-14T16:49:15.393Z,23.50
2018-07-14T16:51:43.775Z,23.50
2018-07-14T16:54:12.117Z,23.50
2018-07-14T16:56:40.456Z,23.50
2018-07-14T16:59:08.795Z,23.40
2018-07-14T17:01:37.135Z,23.30
2018-07-14T17:04:05.485Z,23.20
2018-07-14T17:06:33.757Z,23.30
2018-07-14T17:11:30.125Z,23.20
2018-07-14T17:13:58.508Z,23.20
2018-07-14T17:16:26.908Z,23.10
2018-07-14T17:18:55.276Z,23.10
2018-07-14T17:21:23.766Z,23.20
2018-07-14T17:23:52.112Z,23.10
2018-07-14T17:26:20.584Z,23.10
2018-07-14T17:28:48.909Z,23.20
2018-07-14T17:31:17.223Z,23.10
2018-07-14T17:33:45.572Z,23.10
2018-07-14T17:36:14.001Z,23.20
2018-07-14T17:38:42.347Z,23.20
2018-07-14T17:41:10.693Z,23.20
2018-07-14T17:43:39.075Z,23.20
2018-07-14T17:46:07.421Z,23.20
2018-07-14T17:48:35.728Z,23.30
2018-07-14T17:51:04.161Z,23.20
2018-07-14T17:53:32.733Z,23.10
2018-07-14T17:56:01.121Z,23.00
2018-07-14T17:58:29.468Z,23.00
2018-07-14T18:00:57.793Z,23.00
2018-07-14T18:03:26.161Z,22.80
2018-07-14T18:05:54.517Z,22.80
2018-07-14T18:08:22.877Z,22.70
2018-07-14T18:10:51.285Z,22.60
2018-07-14T18:13:19.639Z,22.50
2018-07-14T18:15:47.960Z,22.40
2018-07-14T18:18:16.261Z,22.40
2018-07-14T18:20:44.567Z,22.30
2018-07-14T18:23:12.900Z,22.20
2018-07-14T18:25:41.235Z,22.10
2018-07-14T18:28:09.534Z,22.00
2018-07-14T18:30:37.920Z,21.90
2018-07-14T18:33:06.342Z,21.80
2018-07-14T18:35:34.671Z,21.70
2018-07-14T18:38:03.057Z,21.60
2018-07-14T18:40:31.463Z,21.60
2018-07-14T18:42:59.829Z,21.50
2018-07-14T18:45:28.220Z,21.40
2018-07-14T18:47:56.578Z,21.30
2018-07-14T18:50:24.914Z,21.20
2018-07-14T18:52:53.217Z,21.20
2018-07-14T18:55:21.565Z,21.20
2018-07-14T18:57:49.875Z,21.10
2018-07-14T19:00:18.242Z,20.90
2018-07-14T19:02:46.611Z,20.70
2018-07-14T19:05:14.953Z,20.60
2018-07-14T19:07:43.313Z,20.50
2018-07-14T19:10:11.657Z,20.30
2018-07-14T19:12:40.047Z,20.30
2018-07-14T19:15:08.400Z,20.20
2018-07-14T19:17:36.768Z,20.20
2018-07-14T19:22:33.183Z,20.10
2018-07-14T19:25:01.538Z,20.00
2018-07-14T19:27:29.895Z,20.00
2018-07-14T19:29:58.216Z,19.90
2018-07-14T19:32:26.515Z,19.90
2018-07-14T19:34:54.901Z,19.80
2018-07-14T19:37:23.125Z,19.60
2018-07-14T19:39:51.411Z,19.40
2018-07-14T19:42:19.701Z,19.10
2018-07-14T19:44:47.965Z,18.90
2018-07-14T19:47:16.293Z,18.70
2018-07-14T19:49:44.625Z,18.60
2018-07-14T19:52:12.930Z,18.40
2018-07-14T19:54:41.227Z,18.30
2018-07-14T19:57:09.532Z,18.10
2018-07-14T19:59:37.803Z,17.90
2018-07-14T20:02:06.411Z,17.70
2018-07-14T20:04:34.677Z,17.60
2018-07-14T20:07:03.055Z,17.60
2018-07-14T20:09:31.327Z,17.40
2018-07-14T20:11:59.628Z,17.40
2018-07-14T20:14:27.915Z,17.40
2018-07-14T20:16:56.203Z,17.30
2018-07-14T20:19:24.496Z,17.10
2018-07-14T20:21:52.792Z,17.00
2018-07-14T20:24:21.088Z,17.00
2018-07-14T20:26:49.628Z,17.00
2018-07-14T20:29:17.876Z,17.00
2018-07-14T20:31:46.150Z,17.00
2018-07-14T20:34:14.415Z,17.00
2018-07-14T20:36:42.716Z,17.10
2018-07-14T20:39:10.983Z,17.10
2018-07-14T20:41:39.280Z,17.10
2018-07-14T20:44:07.538Z,17.00
2018-07-14T20:46:35.823Z,16.80
2018-07-14T20:51:32.132Z,16.40
2018-07-14T20:54:00.427Z,16.40
2018-07-14T20:56:28.748Z,16.40
2018-07-14T20:58:57.145Z,16.30
2018-07-14T21:01:25.438Z,16.10
2018-07-14T21:03:53.742Z,16.00
2018-07-14T21:06:22.034Z,15.80
2018-07-14T21:08:50.313Z,15.70
2018-07-14T21:11:18.578Z,15.70
2018-07-14T21:13:46.959Z,15.60
2018-07-14T21:16:15.236Z,15.70
2018-07-14T21:18:43.775Z,15.70
2018-07-14T21:21:12.149Z,15.70
2018-07-14T21:23:40.415Z,15.60
2018-07-14T21:26:08.675Z,15.60
2018-07-14T21:28:36.941Z,15.50
2018-07-14T21:31:05.588Z,15.40
2018-07-14T21:33:33.928Z,15.40
2018-07-14T21:36:02.266Z,15.20
2018-07-14T21:38:30.533Z,15.10
2018-07-14T21:40:58.829Z,15.00
2018-07-14T21:43:27.139Z,14.80
2018-07-14T21:45:55.526Z,14.80
2018-07-14T21:48:23.869Z,14.70
2018-07-14T21:50:52.172Z,14.70
2018-07-14T21:53:21.338Z,14.70
2018-07-14T21:55:49.625Z,14.60
2018-07-14T21:58:17.942Z,14.70
2018-07-14T22:00:51.646Z,14.80
2018-07-14T22:03:19.947Z,14.80
2018-07-14T22:08:16.306Z,14.70
2018-07-14T22:10:44.565Z,14.60
2018-07-14T22:13:12.866Z,14.50
2018-07-14T22:15:41.137Z,14.40
2018-07-14T22:18:09.425Z,14.40
2018-07-14T22:20:37.691Z,14.30
2018-07-14T22:23:06.061Z,14.20
2018-07-14T22:25:34.328Z,14.10
2018-07-14T22:28:02.621Z,14.00
2018-07-14T22:30:30.887Z,14.00
2018-07-14T22:32:59.180Z,14.00
2018-07-14T22:35:27.489Z,14.10
2018-07-14T22:37:55.765Z,14.10
2018-07-14T22:40:24.039Z,14.10
2018-07-14T22:42:52.365Z,14.00
2018-07-14T22:45:20.766Z,14.00
2018-07-14T22:47:49.056Z,14.00
2018-07-14T22:50:17.359Z,13.90
2018-07-14T22:52:45.718Z,13.90
2018-07-14T22:55:14.035Z,13.80
2018-07-14T22:57:42.436Z,13.90
2018-07-14T23:00:10.747Z,13.90
2018-07-14T23:02:39.041Z,13.90
2018-07-14T23:05:07.368Z,13.80
2018-07-14T23:07:35.695Z,13.80
2018-07-14T23:10:04.088Z,13.70
2018-07-14T23:12:32.354Z,13.60
2018-07-14T23:15:00.633Z,13.50
2018-07-14T23:17:29.039Z,13.40
2018-07-14T23:19:57.403Z,13.40
2018-07-14T23:22:25.668Z,13.40
2018-07-14T23:24:54.020Z,13.40
2018-07-14T23:27:22.300Z,13.50
2018-07-14T23:29:50.592Z,13.40
2018-07-14T23:32:18.954Z,13.40
2018-07-14T23:34:47.304Z,13.40
2018-07-14T23:37:15.646Z,13.40
2018-07-14T23:39:43.950Z,13.40
2018-07-14T23:42:12.214Z,13.30
2018-07-14T23:44:40.535Z,13.30
2018-07-14T23:47:08.815Z,13.20
2018-07-14T23:49:37.098Z,13.30
2018-07-14T23:52:05.532Z,13.30
2018-07-14T23:54:33.819Z,13.30
2018-07-14T23:57:02.116Z,13.30
2018-07-14T23:59:30.466Z,13.20
